createdAt,value
2023-01-25T00:00:05.760Z,20.37
2023-01-25T00:02:33.217Z,21.93
2023-01-25T00:04:59.932Z,21.73
2023-01-25T00:07:27.016Z,22.27
2023-01-25T00:09:53.645Z,18.90
2023-01-25T00:12:23.922Z,21.37
2023-01-25T00:14:50.546Z,23.20
2023-01-25T00:17:17.175Z,17.57
2023-01-25T00:19:44.286Z,18.07
2023-01-25T00:22:11.311Z,17.73
2023-01-25T00:24:37.977Z,17.93
2023-01-25T00:27:05.059Z,18.33
2023-01-25T00:29:32.173Z,16.90
2023-01-25T00:32:02.433Z,18.47
2023-01-25T00:34:29.817Z,16.97
2023-01-25T00:36:58.448Z,18.93
2023-01-25T00:39:27.283Z,17.63
2023-01-25T00:41:54.804Z,16.20
2023-01-25T00:44:22.542Z,16.47
2023-01-25T00:46:49.957Z,17.00
2023-01-25T00:49:25.824Z,21.20
2023-01-25T00:51:53.872Z,22.73
2023-01-25T00:54:21.240Z,16.27
2023-01-25T00:56:47.886Z,14.30
2023-01-25T00:59:15.377Z,17.63
2023-01-25T01:01:42.481Z,17.80
2023-01-25T01:04:10.008Z,16.97
2023-01-25T01:06:40.073Z,16.90
2023-01-25T01:09:11.373Z,19.57
2023-01-25T01:11:38.139Z,21.67
2023-01-25T01:14:05.289Z,15.40
2023-01-25T01:16:32.899Z,16.27
2023-01-25T01:19:00.057Z,15.87
2023-01-25T01:21:26.835Z,19.27
2023-01-25T01:23:54.906Z,20.23
2023-01-25T01:26:22.127Z,19.10
2023-01-25T01:28:49.280Z,19.13
2023-01-25T01:31:21.609Z,19.77
2023-01-25T01:33:57.081Z,18.53
2023-01-25T01:36:25.654Z,16.17
2023-01-25T01:38:52.634Z,17.07
2023-01-25T01:41:19.990Z,20.60
2023-01-25T01:43:46.703Z,17.20
2023-01-25T01:46:21.550Z,17.07
2023-01-25T01:48:54.508Z,18.17
2023-01-25T01:51:44.795Z,14.53
2023-01-25T01:54:40.444Z,15.87
2023-01-25T01:57:16.670Z,15.17
2023-01-25T01:59:55.103Z,16.33
2023-01-25T02:02:25.259Z,15.30
2023-01-25T02:04:55.803Z,17.33
2023-01-25T02:07:35.100Z,13.33
2023-01-25T02:10:04.998Z,15.43
2023-01-25T02:12:32.567Z,16.33
2023-01-25T02:14:59.611Z,16.53
2023-01-25T02:17:34.047Z,16.37
2023-01-25T02:20:23.714Z,14.73
2023-01-25T02:22:59.090Z,17.60
2023-01-25T02:28:35.971Z,18.53
2023-01-25T02:31:02.908Z,15.83
2023-01-25T02:33:29.867Z,20.97
2023-01-25T02:36:12.403Z,11.87
2023-01-25T02:38:44.999Z,17.43
2023-01-25T02:41:20.319Z,14.40
2023-01-25T02:43:47.198Z,13.17
2023-01-25T02:46:20.183Z,18.73
2023-01-25T02:48:47.138Z,15.07
2023-01-25T02:51:14.044Z,18.77
2023-01-25T02:53:41.296Z,17.17
2023-01-25T02:56:08.501Z,18.70
2023-01-25T02:58:35.166Z,22.20
2023-01-25T03:01:02.035Z,17.50
2023-01-25T03:03:28.958Z,18.23
2023-01-25T03:05:55.549Z,14.30
2023-01-25T03:08:22.185Z,15.43
2023-01-25T03:10:49.055Z,18.70
2023-01-25T03:13:15.672Z,15.20
2023-01-25T03:15:42.550Z,13.83
2023-01-25T03:18:09.138Z,12.07
2023-01-25T03:20:35.996Z,12.73
2023-01-25T03:23:02.634Z,14.50
2023-01-25T03:25:29.297Z,14.90
2023-01-25T03:27:56.557Z,13.70
2023-01-25T03:30:23.138Z,13.90
2023-01-25T03:32:50.940Z,14.83
2023-01-25T03:35:17.640Z,14.50
2023-01-25T03:37:44.279Z,12.47
2023-01-25T03:40:11.741Z,14.27
2023-01-25T03:42:38.348Z,15.63
2023-01-25T03:45:05.982Z,15.30
2023-01-25T03:47:32.902Z,16.03
2023-01-25T03:49:59.514Z,12.37
2023-01-25T03:52:27.395Z,14.73
2023-01-25T03:54:54.256Z,16.47
2023-01-25T03:57:20.871Z,15.03
2023-01-25T03:59:47.733Z,16.23
2023-01-25T04:02:14.730Z,13.90
2023-01-25T04:04:41.642Z,12.93
2023-01-25T04:07:08.242Z,12.57
2023-01-25T04:09:35.199Z,14.13
2023-01-25T04:12:01.786Z,13.57
2023-01-25T04:14:43.717Z,14.23
2023-01-25T04:17:11.138Z,13.97
2023-01-25T04:19:38.062Z,14.63
2023-01-25T04:22:04.862Z,13.77
2023-01-25T04:24:31.853Z,13.60
2023-01-25T04:26:58.549Z,16.93
2023-01-25T04:29:35.504Z,13.30
2023-01-25T04:32:07.015Z,13.40
2023-01-25T04:34:34.003Z,10.17
2023-01-25T04:37:00.881Z,13.13
2023-01-25T04:39:27.490Z,11.27
2023-01-25T04:41:54.099Z,11.33
2023-01-25T04:44:20.948Z,11.80
2023-01-25T04:46:48.957Z,10.60
2023-01-25T04:49:15.574Z,13.60
2023-01-25T04:51:42.160Z,11.30
2023-01-25T04:54:08.795Z,15.40
2023-01-25T04:56:35.532Z,13.77
2023-01-25T04:59:02.406Z,13.97
2023-01-25T05:01:29.324Z,14.03
2023-01-25T05:03:55.918Z,14.53
2023-01-25T05:06:22.957Z,12.60
2023-01-25T05:08:49.604Z,16.37
2023-01-25T05:11:16.468Z,11.87
2023-01-25T05:13:43.084Z,11.73
2023-01-25T05:16:09.892Z,15.07
2023-01-25T05:18:48.025Z,13.10
2023-01-25T05:21:33.989Z,13.50
2023-01-25T05:24:00.647Z,14.30
2023-01-25T05:26:47.408Z,11.73
2023-01-25T05:29:14.364Z,11.90
2023-01-25T05:31:41.005Z,12.27
2023-01-25T05:34:08.865Z,11.87
2023-01-25T05:36:35.741Z,10.37
2023-01-25T05:39:02.363Z,12.07
2023-01-25T05:41:31.006Z,9.37
2023-01-25T05:43:57.616Z,9.53
2023-01-25T05:46:24.546Z,11.63
2023-01-25T05:48:51.174Z,12.10
2023-01-25T05:51:17.782Z,11.13
2023-01-25T05:53:44.656Z,10.97
2023-01-25T05:56:11.413Z,11.30
2023-01-25T05:58:39.006Z,12.33
2023-01-25T06:01:08.035Z,11.47
2023-01-25T06:03:34.768Z,13.23
2023-01-25T06:06:02.997Z,9.87
2023-01-25T06:08:33.103Z,11.23
2023-01-25T06:10:59.696Z,12.23
2023-01-25T06:13:28.762Z,11.07
2023-01-25T06:15:56.442Z,12.07
2023-01-25T06:18:24.657Z,15.37
2023-01-25T06:20:51.726Z,14.03
2023-01-25T06:23:18.612Z,13.43
2023-01-25T06:25:45.482Z,14.30
2023-01-25T06:28:12.106Z,13.87
2023-01-25T06:30:38.873Z,12.70
2023-01-25T06:33:05.807Z,13.37
2023-01-25T06:35:33.768Z,12.37
2023-01-25T06:38:01.093Z,12.23
2023-01-25T06:40:29.040Z,16.27
2023-01-25T06:42:55.733Z,13.57
2023-01-25T06:45:22.609Z,11.80
2023-01-25T06:47:49.673Z,13.70
2023-01-25T06:50:16.643Z,14.10
2023-01-25T06:52:43.259Z,14.67
2023-01-25T06:55:13.784Z,12.93
2023-01-25T06:57:40.630Z,11.63
2023-01-25T07:00:08.000Z,17.97
2023-01-25T07:02:35.757Z,12.43
2023-01-25T07:05:03.106Z,15.80
2023-01-25T07:07:30.026Z,14.47
2023-01-25T07:09:56.735Z,15.87
2023-01-25T07:12:23.675Z,14.50
2023-01-25T07:14:50.287Z,15.00
2023-01-25T07:17:16.925Z,16.13
2023-01-25T07:19:43.873Z,13.13
2023-01-25T07:22:10.759Z,13.27
2023-01-25T07:24:37.380Z,12.23
2023-01-25T07:27:04.307Z,11.27
2023-01-25T07:29:30.936Z,14.93
2023-01-25T07:31:57.628Z,14.53
2023-01-25T07:34:24.604Z,17.40
2023-01-25T07:36:51.227Z,13.53
2023-01-25T07:39:18.059Z,15.30
2023-01-25T07:41:44.662Z,16.43
2023-01-25T07:44:11.572Z,12.23
2023-01-25T07:46:38.203Z,14.67
2023-01-25T07:49:04.845Z,15.70
2023-01-25T07:51:31.474Z,13.77
2023-01-25T07:54:00.942Z,13.53
2023-01-25T07:56:30.691Z,15.20
2023-01-25T07:58:58.933Z,13.53
2023-01-25T08:01:27.872Z,12.27
2023-01-25T08:03:58.548Z,13.50
2023-01-25T08:06:30.632Z,11.33
2023-01-25T08:08:59.030Z,17.53
2023-01-25T08:11:28.094Z,15.47
2023-01-25T08:13:55.197Z,16.83
2023-01-25T08:16:24.958Z,13.13
2023-01-25T08:18:57.830Z,14.43
2023-01-25T08:21:29.006Z,15.33
2023-01-25T08:23:58.461Z,14.40
2023-01-25T08:26:25.824Z,14.07
2023-01-25T08:28:55.509Z,13.10
2023-01-25T08:31:28.174Z,13.90
2023-01-25T08:33:55.219Z,11.80
2023-01-25T08:36:24.007Z,13.27
2023-01-25T08:39:01.451Z,14.53
2023-01-25T08:41:30.221Z,14.70
2023-01-25T08:43:57.614Z,15.70
2023-01-25T08:46:26.633Z,11.47
2023-01-25T08:48:55.353Z,13.97
2023-01-25T08:51:26.396Z,18.13
2023-01-25T08:53:53.323Z,15.00
2023-01-25T08:56:20.260Z,13.83
2023-01-25T08:58:50.115Z,16.90
2023-01-25T09:01:19.008Z,13.43
2023-01-25T09:03:49.237Z,14.73
2023-01-25T09:06:16.738Z,12.60
2023-01-25T09:08:44.064Z,15.67
2023-01-25T09:11:21.966Z,16.67
2023-01-25T09:13:49.196Z,13.47
2023-01-25T09:16:30.884Z,14.27
2023-01-25T09:18:59.889Z,16.23
2023-01-25T09:21:27.060Z,17.00
2023-01-25T09:24:11.259Z,16.80
2023-01-25T09:26:44.407Z,15.30
2023-01-25T09:29:14.613Z,14.13
2023-01-25T09:31:44.151Z,14.33
2023-01-25T09:34:12.808Z,14.63
2023-01-25T09:36:39.481Z,13.73
2023-01-25T09:39:06.452Z,15.20
2023-01-25T09:41:48.275Z,16.50
2023-01-25T09:44:37.031Z,13.83
2023-01-25T09:47:20.910Z,12.50
2023-01-25T09:53:49.299Z,13.53
2023-01-25T09:56:23.738Z,12.00
2023-01-25T09:58:57.430Z,12.87
2023-01-25T10:01:42.163Z,13.57
2023-01-25T10:04:28.885Z,14.73
2023-01-25T10:07:12.362Z,15.77
2023-01-25T10:10:03.459Z,11.07
2023-01-25T10:12:36.310Z,11.33
2023-01-25T10:15:21.148Z,12.30
2023-01-25T10:17:59.436Z,15.80
2023-01-25T10:20:47.106Z,12.30
2023-01-25T10:23:19.574Z,16.17
2023-01-25T10:25:54.497Z,14.23
2023-01-25T10:28:42.138Z,12.53
2023-01-25T10:31:19.807Z,12.03
2023-01-25T10:33:48.126Z,10.40
2023-01-25T10:36:32.191Z,13.43
2023-01-25T10:39:01.018Z,13.60
2023-01-25T10:41:40.758Z,11.17
2023-01-25T10:44:25.169Z,16.03
2023-01-25T10:47:04.205Z,12.17
2023-01-25T10:49:41.757Z,11.17
2023-01-25T10:52:20.386Z,13.10
2023-01-25T10:54:50.347Z,13.23
2023-01-25T10:57:22.474Z,10.87
2023-01-25T10:59:52.158Z,13.83
2023-01-25T11:02:40.247Z,12.03
2023-01-25T11:05:35.385Z,10.90
2023-01-25T11:08:25.849Z,13.57
2023-01-25T11:10:54.022Z,11.57
2023-01-25T11:13:24.611Z,14.00
2023-01-25T11:15:53.048Z,10.77
2023-01-25T11:18:24.227Z,9.90
2023-01-25T11:21:19.643Z,12.07
2023-01-25T11:24:11.523Z,11.03
2023-01-25T11:26:40.657Z,12.97
2023-01-25T11:29:15.277Z,11.40
2023-01-25T11:31:48.092Z,16.00
2023-01-25T11:34:18.138Z,22.20
2023-01-25T11:37:03.850Z,21.60
2023-01-25T11:39:44.525Z,14.07
2023-01-25T11:42:27.290Z,9.13
2023-01-25T11:45:17.076Z,10.87
2023-01-25T11:48:22.456Z,11.87
2023-01-25T11:51:22.093Z,11.77
2023-01-25T11:54:21.011Z,11.10
2023-01-25T11:57:10.538Z,11.90
2023-01-25T12:00:03.631Z,10.70
2023-01-25T12:02:43.020Z,14.10
2023-01-25T12:05:28.488Z,12.27
2023-01-25T12:08:10.261Z,14.10
2023-01-25T12:10:55.583Z,11.13
2023-01-25T12:13:53.407Z,14.07
2023-01-25T12:16:47.274Z,10.17
2023-01-25T12:19:31.439Z,12.60
2023-01-25T12:22:09.631Z,10.07
2023-01-25T12:25:00.913Z,11.40
2023-01-25T12:27:43.267Z,12.43
2023-01-25T12:30:27.037Z,11.07
2023-01-25T12:33:14.963Z,11.57
2023-01-25T12:35:54.855Z,11.70
2023-01-25T12:38:54.260Z,10.97
2023-01-25T12:41:29.928Z,12.17
2023-01-25T12:44:14.355Z,13.03
2023-01-25T12:47:11.019Z,11.73
2023-01-25T12:49:44.057Z,13.10
2023-01-25T12:52:42.841Z,11.93
2023-01-25T12:55:15.396Z,11.57
2023-01-25T12:57:51.076Z,10.83
2023-01-25T13:00:32.892Z,12.43
2023-01-25T13:03:29.176Z,10.63
2023-01-25T13:06:17.154Z,12.13
2023-01-25T13:09:24.747Z,14.07
2023-01-25T13:11:51.776Z,12.47
2023-01-25T13:14:18.526Z,14.47
2023-01-25T13:17:09.065Z,14.73
2023-01-25T13:19:36.721Z,12.00
2023-01-25T13:22:04.746Z,18.20
2023-01-25T13:24:33.467Z,16.43
2023-01-25T13:27:00.062Z,16.07
2023-01-25T13:29:32.270Z,12.93
2023-01-25T13:32:00.280Z,12.63
2023-01-25T13:34:35.993Z,11.73
2023-01-25T13:37:12.382Z,12.83
2023-01-25T13:39:38.956Z,12.50
2023-01-25T13:42:20.840Z,13.80
2023-01-25T13:44:53.403Z,11.77
2023-01-25T13:47:29.544Z,9.70
2023-01-25T13:50:13.391Z,12.30
2023-01-25T13:52:55.766Z,12.00
2023-01-25T13:55:22.422Z,14.30
2023-01-25T13:57:50.429Z,16.50
2023-01-25T14:00:19.020Z,12.47
2023-01-25T14:02:54.662Z,14.13
2023-01-25T14:05:24.456Z,12.60
2023-01-25T14:07:55.475Z,13.27
2023-01-25T14:10:26.257Z,13.37
2023-01-25T14:12:58.113Z,13.43
2023-01-25T14:15:30.859Z,13.10
2023-01-25T14:18:17.748Z,14.47
2023-01-25T14:20:46.299Z,12.43
2023-01-25T14:23:28.827Z,12.03
2023-01-25T14:25:59.104Z,12.33
2023-01-25T14:28:27.164Z,12.77
2023-01-25T14:30:58.928Z,14.53
2023-01-25T14:33:29.530Z,15.13
2023-01-25T14:36:24.091Z,13.60
2023-01-25T14:38:52.302Z,13.90
2023-01-25T14:41:22.271Z,17.63
2023-01-25T14:43:53.130Z,16.47
2023-01-25T14:46:22.055Z,16.33
2023-01-25T14:48:48.717Z,13.80
2023-01-25T14:51:30.407Z,17.10
2023-01-25T14:54:02.336Z,16.73
2023-01-25T14:56:44.484Z,17.90
2023-01-25T14:59:37.117Z,17.27
2023-01-25T15:02:30.523Z,18.07
2023-01-25T15:05:25.380Z,17.70
2023-01-25T15:07:55.153Z,18.23
2023-01-25T15:10:58.292Z,14.97
2023-01-25T15:13:26.951Z,18.40
2023-01-25T15:16:00.288Z,16.10
2023-01-25T15:18:49.299Z,16.30
2023-01-25T15:21:24.855Z,16.10
2023-01-25T15:23:53.210Z,20.23
2023-01-25T15:26:28.461Z,20.60
2023-01-25T15:28:58.189Z,19.87
2023-01-25T15:31:30.714Z,18.87
2023-01-25T15:33:58.766Z,19.63
2023-01-25T15:36:25.727Z,17.97
2023-01-25T15:38:52.361Z,18.07
2023-01-25T15:41:19.623Z,20.73
2023-01-25T15:43:47.066Z,22.87
2023-01-25T15:46:26.529Z,20.50
2023-01-25T15:48:53.673Z,20.17
2023-01-25T15:51:20.939Z,19.33
2023-01-25T15:53:55.016Z,16.87
2023-01-25T15:56:27.335Z,21.73
2023-01-25T15:58:57.658Z,20.60
2023-01-25T16:01:27.281Z,21.13
2023-01-25T16:03:55.648Z,18.70
2023-01-25T16:06:41.746Z,22.00
2023-01-25T16:09:16.130Z,21.77
2023-01-25T16:11:43.547Z,25.23
2023-01-25T16:14:10.222Z,20.17
2023-01-25T16:16:41.388Z,30.07
2023-01-25T16:19:13.379Z,18.30
2023-01-25T16:21:40.808Z,25.27
2023-01-25T16:24:08.401Z,25.43
2023-01-25T16:26:37.824Z,24.80
2023-01-25T16:29:04.495Z,20.30
2023-01-25T16:31:33.188Z,21.00
2023-01-25T16:34:01.409Z,20.23
2023-01-25T16:36:28.575Z,20.90
2023-01-25T16:38:55.431Z,22.33
2023-01-25T16:41:22.280Z,22.40
2023-01-25T16:43:49.361Z,22.33
2023-01-25T16:46:23.766Z,19.50
2023-01-25T16:48:52.351Z,18.23
2023-01-25T16:51:21.895Z,20.07
2023-01-25T16:53:50.287Z,21.00
2023-01-25T16:56:17.800Z,20.20
2023-01-25T16:58:45.130Z,23.60
2023-01-25T17:01:13.590Z,19.67
2023-01-25T17:03:40.529Z,22.13
2023-01-25T17:06:08.362Z,22.97
2023-01-25T17:08:35.203Z,25.93
2023-01-25T17:11:28.374Z,19.70
2023-01-25T17:13:57.603Z,22.10
2023-01-25T17:16:26.009Z,17.37
2023-01-25T17:18:57.548Z,19.30
2023-01-25T17:21:24.535Z,22.63
2023-01-25T17:23:51.327Z,22.77
2023-01-25T17:26:20.717Z,19.33
2023-01-25T17:28:48.067Z,17.37
2023-01-25T17:31:23.941Z,20.90
2023-01-25T17:34:43.622Z,20.00
2023-01-25T17:37:10.556Z,18.53
2023-01-25T17:39:37.242Z,22.07
2023-01-25T17:42:06.319Z,20.87
2023-01-25T17:45:26.047Z,21.77
2023-01-25T17:48:01.982Z,22.43
2023-01-25T17:50:37.075Z,19.03
2023-01-25T17:53:04.840Z,18.00
2023-01-25T17:55:35.208Z,19.50
2023-01-25T17:58:02.067Z,19.17
2023-01-25T18:00:28.863Z,21.03
2023-01-25T18:02:56.890Z,23.07
2023-01-25T18:05:24.600Z,18.97
2023-01-25T18:07:51.274Z,19.70
2023-01-25T18:10:18.870Z,17.77
2023-01-25T18:13:03.817Z,17.27
2023-01-25T18:15:32.115Z,19.87
2023-01-25T18:17:59.979Z,19.30
2023-01-25T18:20:26.652Z,17.10
2023-01-25T18:22:53.986Z,19.77
2023-01-25T18:25:37.193Z,19.00
2023-01-25T18:28:03.856Z,21.87
2023-01-25T18:30:42.260Z,20.90
2023-01-25T18:33:08.878Z,19.97
2023-01-25T18:35:36.280Z,20.17
2023-01-25T18:38:02.881Z,20.57
2023-01-25T18:40:30.468Z,18.80
2023-01-25T18:42:58.433Z,26.30
2023-01-25T18:45:25.161Z,21.53
2023-01-25T18:47:51.815Z,23.57
2023-01-25T18:50:18.583Z,20.30
2023-01-25T18:52:45.473Z,19.03
2023-01-25T18:55:12.625Z,22.67
2023-01-25T18:57:39.630Z,22.13
2023-01-25T19:00:10.849Z,21.47
2023-01-25T19:02:38.150Z,22.30
2023-01-25T19:05:05.383Z,22.10
2023-01-25T19:07:32.617Z,21.27
2023-01-25T19:09:59.294Z,22.17
2023-01-25T19:12:26.171Z,22.13
2023-01-25T19:14:52.842Z,21.87
2023-01-25T19:17:19.502Z,28.40
2023-01-25T19:19:46.109Z,26.87
2023-01-25T19:22:12.717Z,21.20
2023-01-25T19:24:39.599Z,22.03
2023-01-25T19:27:06.223Z,20.43
2023-01-25T19:29:32.960Z,23.63
2023-01-25T19:31:59.630Z,20.33
2023-01-25T19:34:26.389Z,25.93
2023-01-25T19:36:54.068Z,20.70
2023-01-25T19:39:21.147Z,20.67
2023-01-25T19:41:47.885Z,21.37
2023-01-25T19:44:15.440Z,21.03
2023-01-25T19:46:42.829Z,21.80
2023-01-25T19:49:10.971Z,21.57
2023-01-25T19:51:44.354Z,26.77
2023-01-25T19:54:17.332Z,24.93
2023-01-25T19:56:46.280Z,25.77
2023-01-25T19:59:16.272Z,23.90
2023-01-25T20:01:46.584Z,21.97
2023-01-25T20:04:22.347Z,22.20
2023-01-25T20:06:50.651Z,24.70
2023-01-25T20:09:19.926Z,23.80
2023-01-25T20:11:47.456Z,24.73
2023-01-25T20:14:14.601Z,22.03
2023-01-25T20:16:41.505Z,24.67
2023-01-25T20:19:10.826Z,26.50
2023-01-25T20:21:39.535Z,27.80
2023-01-25T20:24:07.498Z,29.50
2023-01-25T20:26:39.220Z,24.17
2023-01-25T20:29:07.544Z,25.33
2023-01-25T20:31:44.260Z,27.83
2023-01-25T20:34:13.995Z,22.30
2023-01-25T20:36:41.946Z,23.50
2023-01-25T20:39:09.071Z,22.90
2023-01-25T20:41:35.714Z,24.13
2023-01-25T20:44:07.147Z,24.67
2023-01-25T20:46:37.520Z,24.37
2023-01-25T20:49:31.970Z,26.47
2023-01-25T20:51:58.596Z,22.53
2023-01-25T20:54:25.227Z,23.80
2023-01-25T20:56:52.138Z,22.63
2023-01-25T20:59:19.310Z,24.70
2023-01-25T21:01:46.713Z,23.53
2023-01-25T21:04:13.553Z,25.40
2023-01-25T21:06:40.221Z,25.40
2023-01-25T21:09:07.141Z,23.33
2023-01-25T21:11:34.754Z,22.27
2023-01-25T21:14:01.721Z,24.37
2023-01-25T21:16:28.592Z,24.80
2023-01-25T21:19:00.228Z,24.13
2023-01-25T21:21:31.703Z,21.20
2023-01-25T21:24:02.654Z,25.33
2023-01-25T21:26:31.737Z,25.77
2023-01-25T21:28:59.913Z,25.93
2023-01-25T21:31:29.526Z,20.90
2023-01-25T21:33:56.851Z,27.17
2023-01-25T21:36:24.405Z,36.70
2023-01-25T21:38:52.664Z,33.70
2023-01-25T21:41:20.847Z,22.50
2023-01-25T21:44:07.239Z,22.40
2023-01-25T21:46:34.298Z,27.33
2023-01-25T21:49:22.880Z,26.10
2023-01-25T21:51:52.114Z,26.07
2023-01-25T21:54:20.387Z,27.50
2023-01-25T21:56:49.271Z,22.60
2023-01-25T21:59:16.537Z,25.07
2023-01-25T22:01:43.613Z,25.03
2023-01-25T22:04:11.381Z,25.87
2023-01-25T22:06:38.497Z,28.43
2023-01-25T22:09:05.855Z,23.87
2023-01-25T22:11:32.751Z,29.50
2023-01-25T22:14:00.998Z,23.40
2023-01-25T22:16:29.582Z,28.00
2023-01-25T22:18:56.789Z,25.97
2023-01-25T22:21:30.926Z,29.10
2023-01-25T22:24:02.964Z,25.00
2023-01-25T22:26:51.962Z,27.67
2023-01-25T22:29:18.657Z,30.07
2023-01-25T22:31:45.445Z,26.13
2023-01-25T22:34:12.383Z,26.73
2023-01-25T22:36:39.272Z,29.03
2023-01-25T22:39:06.180Z,27.90
2023-01-25T22:41:35.824Z,26.07
2023-01-25T22:44:02.738Z,24.83
2023-01-25T22:46:30.036Z,25.97
2023-01-25T22:48:57.797Z,27.13
2023-01-25T22:51:29.699Z,22.33
2023-01-25T22:53:57.839Z,24.20
2023-01-25T22:56:26.997Z,28.53
2023-01-25T22:58:54.023Z,27.43
2023-01-25T23:01:24.331Z,24.57
2023-01-25T23:03:51.735Z,22.60
2023-01-25T23:06:24.963Z,23.47
2023-01-25T23:08:55.171Z,24.33
2023-01-25T23:11:24.152Z,26.17
2023-01-25T23:14:11.182Z,26.97
2023-01-25T23:16:38.115Z,25.27
2023-01-25T23:19:05.623Z,23.70
2023-01-25T23:21:32.560Z,24.30
2023-01-25T23:24:01.076Z,27.77
2023-01-25T23:26:29.558Z,27.37
2023-01-25T23:28:57.478Z,23.53
2023-01-25T23:31:25.276Z,27.73
2023-01-25T23:33:58.830Z,26.80
2023-01-25T23:36:30.952Z,27.13
2023-01-25T23:38:58.480Z,28.87
2023-01-25T23:41:27.269Z,26.37
2023-01-25T23:43:55.029Z,26.03
2023-01-25T23:46:23.385Z,24.00
2023-01-25T23:48:50.512Z,26.50
2023-01-25T23:51:17.609Z,22.57
2023-01-25T23:53:44.904Z,25.27
2023-01-25T23:56:19.987Z,24.67
2023-01-25T23:58:47.617Z,22.43
